KTME Airport (Houston Executive) Information

FAA: TME - ICAO: KTME

KTME Airport Location

State Texas
County Waller
City Houston
KTME Airport is 28 miles west of Houston, TX.
Latitude 29-48-18.1000N
Longitude 095-53-52.4000W
Elevation 165ft

KTME Airport METARs

METAR KTME 240915Z AUTO 00000KT 10SM CLR 13/13 A3008 RMK AO2
Altimeter 30.08"
Temperature 13.0°C (55.4°F)
Wind 0° at 0KT
Clouds Skies are clear.
Visibility 10.0mi
Time observed: 2021-09-24T09:15:00Z

KTME Airport Details

Status Operational
Activation N/A
Ownership Private
Usage Public
Chart HOUSTON
ATC on-site Yes
Beacon schedule sunset-sunrise
Beacon color clear green

KTME Airport Contacts

Owner WCF LLC
Owner address 1900 CARDIFF ROAD, BROOKSHIRE, TX 77423
Owner phone 281-945-5000
Manager REGINALD HIGGINS
Manager address 1000 LOUISIANA ST, SUITE 7000, SUITE 7000, HOUSTON, TX 77002
Manager phone 713-408-8539

KTME Airport (Houston Executive) Radio Frequencies

KTME (Airport) Radio Frequencies

UNICOM 122.975
Common traffic advisory frequency (CTAF) 126.975